Time;durP1;ratioP1;P1;durP2;ratioP2;P2;SDS_P1;SDS_P2;PMS_P1;PMS_P2;Temp;Humidity;BMP_temperature;BMP_pressure;BME280_temperature;BME280_humidity;BME280_pressure;Samples;Min_cycle;Max_cycle;Signal;HPM_P1;HPM_P2
2022/09/13 00:09:58;;;;;;;2.97;2.78;;;;;;;-145.23;100.00;58621.06;5000017;28;20759;-54
2022/09/13 00:12:24;;;;;;;3.28;2.97;;;;;;;-145.23;100.00;58621.06;4996710;28;20477;-54
2022/09/13 00:14:55;;;;;;;3.00;2.80;;;;;;;-145.23;100.00;58621.06;4996439;28;20225;-54
2022/09/13 00:17:22;;;;;;;3.00;2.80;;;;;;;-145.23;100.00;58621.06;4994777;28;20243;-54
2022/09/13 00:19:49;;;;;;;3.05;2.85;;;;;;;-145.23;100.00;58621.06;4994433;28;20942;-55
2022/09/13 00:22:16;;;;;;;2.53;2.42;;;;;;;-145.23;100.00;58621.06;4985557;28;20288;-54
2022/09/13 00:24:42;;;;;;;3.22;3.03;;;;;;;-145.23;100.00;58621.06;5003006;28;20237;-54
2022/09/13 00:27:10;;;;;;;2.88;2.67;;;;;;;-145.23;100.00;58621.06;5013494;28;20244;-55
2022/09/13 00:29:36;;;;;;;3.67;3.03;;;;;;;-145.23;100.00;58621.06;4992696;28;20739;-55
2022/09/13 00:32:05;;;;;;;3.35;2.58;;;;;;;-145.23;100.00;58621.06;4999118;28;20808;-54
2022/09/13 00:34:31;;;;;;;3.40;3.10;;;;;;;-145.23;100.00;58621.06;4992784;28;20234;-54
2022/09/13 00:36:58;;;;;;;3.13;2.83;;;;;;;-145.23;100.00;58621.06;4993128;28;20287;-54
2022/09/13 00:39:25;;;;;;;2.50;2.40;;;;;;;-145.23;100.00;58621.06;4996896;28;20246;-54
2022/09/13 00:41:52;;;;;;;3.08;2.83;;;;;;;-145.23;100.00;58621.06;5002141;28;20282;-55
2022/09/13 00:44:57;;;;;;;3.65;2.25;;;;;;;-145.23;100.00;58621.06;5000893;28;20897;-58
2022/09/13 00:47:32;;;;;;;2.90;2.55;;;;;;;-145.23;100.00;58621.06;4999989;28;20273;-55
2022/09/13 00:50:03;;;;;;;2.80;2.60;;;;;;;-145.23;100.00;58621.06;4998686;28;20263;-54
2022/09/13 00:52:31;;;;;;;2.75;2.55;;;;;;;-145.23;100.00;58621.06;5002381;28;20913;-54
2022/09/13 00:55:01;;;;;;;2.97;2.78;;;;;;;-145.23;100.00;58621.06;4994588;28;20233;-55
2022/09/13 00:57:28;;;;;;;3.22;3.03;;;;;;;-145.23;100.00;58621.06;5010247;28;20233;-55
2022/09/13 01:00:00;;;;;;;3.60;2.53;;;;;;;-145.23;100.00;58621.06;5001979;28;20339;-54
2022/09/13 01:02:28;;;;;;;2.80;2.60;;;;;;;-145.23;100.00;58621.06;5001691;28;20236;-55
2022/09/13 01:04:55;;;;;;;2.67;2.47;;;;;;;-145.23;100.00;58621.06;5008673;28;20253;-55
2022/09/13 01:07:21;;;;;;;2.85;2.65;;;;;;;-145.23;100.00;58621.06;4990593;28;20245;-53
2022/09/13 01:09:49;;;;;;;2.53;2.33;;;;;;;-145.23;100.00;58621.06;4991104;28;21203;-55
2022/09/13 01:12:24;;;;;;;2.67;2.47;;;;;;;-145.23;100.00;58621.06;5001492;28;20265;-53
2022/09/13 01:14:51;;;;;;;2.75;2.55;;;;;;;-145.23;100.00;58621.06;4991247;28;20225;-55
2022/09/13 01:17:18;;;;;;;5.00;2.75;;;;;;;-145.23;100.00;58621.06;5002080;28;20241;-53
2022/09/13 01:19:46;;;;;;;3.03;2.83;;;;;;;-145.23;100.00;58621.06;4996218;28;20242;-54
2022/09/13 01:22:36;;;;;;;2.80;2.60;;;;;;;-145.23;100.00;58621.06;4992738;28;20235;-54
2022/09/13 01:25:43;;;;;;;3.30;3.08;;;;;;;-145.23;100.00;58621.06;4994668;28;20241;-58
2022/09/13 01:28:18;;;;;;;2.65;2.45;;;;;;;-145.23;100.00;58621.06;5000350;28;20231;-54
2022/09/13 01:30:51;;;;;;;2.80;2.60;;;;;;;-145.23;100.00;58621.06;4997911;28;20290;-54
2022/09/13 01:33:39;;;;;;;2.80;2.60;;;;;;;-145.23;100.00;58621.06;5000651;28;20623;-53
2022/09/13 01:36:32;;;;;;;6.05;2.90;;;;;;;-145.23;100.00;58621.06;4994080;28;20234;-55
2022/09/13 01:39:04;;;;;;;2.97;2.78;;;;;;;-145.23;100.00;58621.06;4994277;28;20237;-55
2022/09/13 01:41:54;;;;;;;3.13;2.92;;;;;;;-145.23;100.00;58621.06;5007035;28;20221;-56
2022/09/13 01:44:30;;;;;;;3.10;2.90;;;;;;;-145.23;100.00;58621.06;5000229;28;20419;-56
2022/09/13 01:47:04;;;;;;;4.07;2.60;;;;;;;-145.23;100.00;58621.06;4998635;28;20235;-53
2022/09/13 01:49:35;;;;;;;3.95;3.22;;;;;;;-145.23;100.00;58621.06;4991516;28;20677;-55
2022/09/13 01:52:06;;;;;;;2.95;2.75;;;;;;;-145.23;100.00;58621.06;5007131;28;20240;-55
2022/09/13 01:54:38;;;;;;;3.35;3.13;;;;;;;-145.23;100.00;58621.06;5000199;28;20238;-53
2022/09/13 01:57:12;;;;;;;3.03;2.20;;;;;;;-145.23;100.00;58621.06;5006462;28;20894;-53
2022/09/13 01:59:45;;;;;;;5.05;2.78;;;;;;;-145.23;100.00;58621.06;5000930;28;20869;-53
2022/09/13 02:02:16;;;;;;;3.15;2.95;;;;;;;-145.23;100.00;58621.06;5003954;28;20318;-53
2022/09/13 02:04:46;;;;;;;3.00;2.80;;;;;;;-145.23;100.00;58621.06;4986200;28;20242;-52
2022/09/13 02:07:16;;;;;;;3.35;3.00;;;;;;;-145.23;100.00;58621.06;4996755;28;20233;-55
2022/09/13 02:09:46;;;;;;;3.33;3.03;;;;;;;-145.23;100.00;58621.06;4994617;28;20317;-52
2022/09/13 02:12:16;;;;;;;3.92;3.63;;;;;;;-145.23;100.00;58621.06;4988860;28;20234;-54
2022/09/13 02:14:44;;;;;;;3.10;2.90;;;;;;;-145.23;100.00;58621.06;4995845;28;20230;-55
2022/09/13 02:17:15;;;;;;;8.80;3.67;;;;;;;-145.23;100.00;58621.06;5002131;28;20231;-54
2022/09/13 02:19:52;;;;;;;3.20;3.00;;;;;;;-145.23;100.00;58621.06;4990990;28;20226;-58
2022/09/13 02:22:22;;;;;;;3.50;3.30;;;;;;;-145.23;100.00;58621.06;5009127;28;20695;-56
2022/09/13 02:24:53;;;;;;;3.03;2.83;;;;;;;-145.23;100.00;58621.06;4994549;28;21298;-56
2022/09/13 02:27:22;;;;;;;3.67;3.30;;;;;;;-145.23;100.00;58621.06;5001571;28;20225;-55
2022/09/13 02:29:51;;;;;;;3.00;2.80;;;;;;;-145.23;100.00;58621.06;4986852;28;20582;-57
2022/09/13 02:32:22;;;;;;;3.65;3.25;;;;;;;-145.23;100.00;58621.06;4995643;28;20476;-53
2022/09/13 02:34:53;;;;;;;3.00;2.80;;;;;;;-145.23;100.00;58621.06;4991336;28;20237;-53
2022/09/13 02:37:20;;;;;;;2.80;2.60;;;;;;;-145.23;100.00;58621.06;4999931;28;20372;-55
2022/09/13 02:39:51;;;;;;;3.58;3.30;;;;;;;-145.23;100.00;58621.06;4990595;28;20237;-55
2022/09/13 02:42:20;;;;;;;3.65;3.40;;;;;;;-145.23;100.00;58621.06;5005545;28;20285;-54
2022/09/13 02:44:49;;;;;;;3.05;2.85;;;;;;;-145.23;100.00;58621.06;4995075;28;20325;-55
2022/09/13 02:47:32;;;;;;;3.83;3.53;;;;;;;-145.23;100.00;58621.06;4991254;28;20234;-54
2022/09/13 02:50:09;;;;;;;3.95;3.65;;;;;;;-145.23;100.00;58621.06;4989934;28;20232;-54
2022/09/13 02:52:42;;;;;;;4.28;3.95;;;;;;;-145.23;100.00;58621.06;5016882;28;20247;-54
2022/09/13 02:55:16;;;;;;;3.55;3.25;;;;;;;-145.23;100.00;58621.06;5012186;28;20237;-54
2022/09/13 02:57:51;;;;;;;3.70;3.40;;;;;;;-145.23;100.00;58621.06;4994295;28;20328;-54
2022/09/13 03:00:18;;;;;;;3.60;3.30;;;;;;;-145.23;100.00;58621.06;4989406;28;20233;-54
2022/09/13 03:02:47;;;;;;;3.97;3.65;;;;;;;-145.23;100.00;58621.06;4990682;28;20261;-54
2022/09/13 03:05:14;;;;;;;3.85;3.55;;;;;;;-145.23;100.00;58621.06;4994173;28;20237;-54
2022/09/13 03:07:40;;;;;;;5.25;3.88;;;;;;;-145.23;100.00;58621.06;4996448;28;20237;-54
2022/09/13 03:10:09;;;;;;;3.75;3.38;;;;;;;-145.23;100.00;58621.06;4985274;28;20237;-54
2022/09/13 03:13:17;;;;;;;3.70;3.40;;;;;;;-145.23;100.00;58621.06;4997001;28;20244;-54
2022/09/13 03:15:51;;;;;;;3.30;3.10;;;;;;;-145.23;100.00;58621.06;4993609;28;20447;-54
2022/09/13 03:18:30;;;;;;;3.50;3.30;;;;;;;-145.23;100.00;58621.06;4990698;28;20323;-54
2022/09/13 03:21:06;;;;;;;4.15;3.85;;;;;;;-145.23;100.00;58621.06;4986865;28;20225;-54
2022/09/13 03:23:44;;;;;;;3.88;3.58;;;;;;;-145.23;100.00;58621.06;5003234;28;20327;-54
2022/09/13 03:26:19;;;;;;;4.07;3.78;;;;;;;-145.23;100.00;58621.06;4995878;28;20364;-54
2022/09/13 03:28:51;;;;;;;4.65;3.83;;;;;;;-145.23;100.00;58621.06;4997570;28;20237;-53
2022/09/13 03:31:22;;;;;;;3.65;3.40;;;;;;;-145.23;100.00;58621.06;4996211;28;20229;-54
2022/09/13 03:33:55;;;;;;;3.95;3.65;;;;;;;-145.23;100.00;58621.06;4991116;28;20225;-54
2022/09/13 03:36:25;;;;;;;5.50;4.30;;;;;;;-145.23;100.00;58621.06;4990619;28;20684;-55
2022/09/13 03:38:56;;;;;;;4.78;3.72;;;;;;;-145.23;100.00;58621.06;4984690;28;20242;-54
2022/09/13 03:41:25;;;;;;;5.63;4.00;;;;;;;-145.23;100.00;58621.06;4997409;28;20229;-55
2022/09/13 03:43:55;;;;;;;5.05;3.72;;;;;;;-145.23;100.00;58621.06;5005564;28;20240;-55
2022/09/13 03:46:25;;;;;;;4.55;4.25;;;;;;;-145.23;100.00;58621.06;5001948;28;20236;-55
2022/09/13 03:48:54;;;;;;;4.18;3.88;;;;;;;-145.23;100.00;58621.06;4990209;28;20253;-54
2022/09/13 03:51:21;;;;;;;4.97;3.60;;;;;;;-145.23;100.00;58621.06;4995169;28;20237;-55
2022/09/13 03:53:57;;;;;;;3.92;3.63;;;;;;;-145.23;100.00;58621.06;5000857;28;20241;-54
2022/09/13 03:56:24;;;;;;;4.43;4.13;;;;;;;-145.23;100.00;58621.06;4995037;28;20233;-54
2022/09/13 03:58:51;;;;;;;4.35;3.95;;;;;;;-145.23;100.00;58621.06;4991515;28;20233;-54
2022/09/13 04:01:19;;;;;;;4.20;3.90;;;;;;;-145.23;100.00;58621.06;4992480;28;20240;-54
2022/09/13 04:03:46;;;;;;;4.53;4.22;;;;;;;-145.23;100.00;58621.06;5004143;28;20311;-55
2022/09/13 04:06:14;;;;;;;4.68;4.25;;;;;;;-145.23;100.00;58621.06;5004349;28;20307;-54
2022/09/13 04:08:40;;;;;;;5.00;4.60;;;;;;;-145.23;100.00;58621.06;4998499;28;20594;-54
2022/09/13 04:11:08;;;;;;;4.60;4.13;;;;;;;-145.23;100.00;58621.06;4988945;28;20238;-54
2022/09/13 04:13:35;;;;;;;5.03;4.63;;;;;;;-145.23;100.00;58621.06;4987212;28;20730;-54
2022/09/13 04:16:02;;;;;;;4.60;4.30;;;;;;;-145.23;100.00;58621.06;4993976;28;20305;-54
2022/09/13 04:18:29;;;;;;;4.88;4.47;;;;;;;-145.23;100.00;58621.06;4992918;28;20333;-54
2022/09/13 04:20:56;;;;;;;5.45;5.03;;;;;;;-145.23;100.00;58621.06;4985414;28;20631;-54
2022/09/13 04:23:25;;;;;;;4.60;4.30;;;;;;;-145.23;100.00;58621.06;4999797;28;20230;-54
2022/09/13 04:25:52;;;;;;;4.15;3.85;;;;;;;-145.23;100.00;58621.06;5001088;28;20241;-54
2022/09/13 04:28:19;;;;;;;4.88;4.20;;;;;;;-145.23;100.00;58621.06;4999573;28;20241;-54
2022/09/13 04:30:46;;;;;;;5.32;4.93;;;;;;;-145.23;100.00;58621.06;5005602;28;20220;-54
2022/09/13 04:33:13;;;;;;;5.78;5.18;;;;;;;-145.23;100.00;58621.06;5007396;28;20236;-54
2022/09/13 04:35:41;;;;;;;4.50;4.13;;;;;;;-145.23;100.00;58621.06;5005440;28;20231;-54
2022/09/13 04:38:08;;;;;;;7.50;5.57;;;;;;;-145.23;100.00;58621.06;4987373;28;20246;-54
2022/09/13 04:40:36;;;;;;;5.43;4.93;;;;;;;-145.23;100.00;58621.06;4992745;28;20304;-54
2022/09/13 04:43:02;;;;;;;6.82;5.35;;;;;;;-145.23;100.00;58621.06;4995234;28;20235;-54
2022/09/13 04:45:29;;;;;;;6.63;6.03;;;;;;;-145.23;100.00;58621.06;4991696;28;20234;-54
2022/09/13 04:47:56;;;;;;;5.65;5.20;;;;;;;-145.23;100.00;58621.06;4988653;28;20237;-54
2022/09/13 04:50:24;;;;;;;5.70;5.20;;;;;;;-145.23;100.00;58621.06;4994283;28;20234;-54
2022/09/13 04:52:51;;;;;;;6.47;5.88;;;;;;;-145.23;100.00;58621.06;5006975;28;20706;-54
2022/09/13 04:55:17;;;;;;;5.60;5.00;;;;;;;-145.23;100.00;58621.06;5002561;28;20237;-54
2022/09/13 04:57:45;;;;;;;6.07;5.53;;;;;;;-145.23;100.00;58621.06;4991103;28;20233;-54
2022/09/13 05:00:12;;;;;;;5.30;4.80;;;;;;;-145.23;100.00;58621.06;4997300;28;20246;-54
2022/09/13 05:02:39;;;;;;;5.88;5.38;;;;;;;-145.23;100.00;58621.06;4999553;28;20317;-54
2022/09/13 05:05:06;;;;;;;6.15;5.65;;;;;;;-145.23;100.00;58621.06;4995843;28;20244;-54
2022/09/13 05:07:33;;;;;;;6.10;5.55;;;;;;;-145.23;100.00;58621.06;4989660;28;20226;-54
2022/09/13 05:09:59;;;;;;;4.82;4.25;;;;;;;-145.23;100.00;58621.06;4991078;28;20246;-55
2022/09/13 05:12:26;;;;;;;5.78;5.28;;;;;;;-145.23;100.00;58621.06;4990875;28;20244;-56
2022/09/13 05:14:54;;;;;;;6.25;5.63;;;;;;;-145.23;100.00;58621.06;4983897;28;20234;-54
2022/09/13 05:17:20;;;;;;;7.07;5.45;;;;;;;-145.23;100.00;58621.06;4994420;28;20603;-55
2022/09/13 05:19:48;;;;;;;5.47;4.97;;;;;;;-145.23;100.00;58621.06;4990821;28;20688;-54
2022/09/13 05:22:14;;;;;;;5.35;4.95;;;;;;;-145.23;100.00;58621.06;4999667;28;20233;-54
2022/09/13 05:24:41;;;;;;;5.90;5.18;;;;;;;-145.23;100.00;58621.06;4992639;28;21791;-54
2022/09/13 05:27:08;;;;;;;5.57;5.07;;;;;;;-145.23;100.00;58621.06;4990499;28;20742;-54
2022/09/13 05:29:35;;;;;;;7.65;5.18;;;;;;;-145.23;100.00;58621.06;5002970;28;20237;-54
2022/09/13 05:32:03;;;;;;;5.30;4.82;;;;;;;-145.23;100.00;58621.06;4993576;28;20315;-54
2022/09/13 05:34:29;;;;;;;6.20;5.70;;;;;;;-145.23;100.00;58621.06;4989460;28;20700;-54
2022/09/13 05:36:56;;;;;;;5.53;5.03;;;;;;;-145.23;100.00;58621.06;4998278;28;20241;-54
2022/09/13 05:39:22;;;;;;;8.45;6.15;;;;;;;-145.23;100.00;58621.06;4987181;28;20244;-54
2022/09/13 05:41:49;;;;;;;5.50;5.10;;;;;;;-145.23;100.00;58621.06;4992976;28;20236;-54
2022/09/13 05:44:16;;;;;;;7.65;5.57;;;;;;;-145.23;100.00;58621.06;4994685;28;20236;-54
2022/09/13 05:46:42;;;;;;;5.75;5.25;;;;;;;-145.23;100.00;58621.06;4993282;28;20253;-54
2022/09/13 05:49:12;;;;;;;6.30;5.80;;;;;;;-145.23;100.00;58621.06;4997401;28;20264;-54
2022/09/13 05:51:39;;;;;;;8.20;5.95;;;;;;;-145.23;100.00;58621.06;5003561;28;20316;-54
2022/09/13 05:54:05;;;;;;;6.82;6.10;;;;;;;-145.23;100.00;58621.06;4988389;28;20226;-54
2022/09/13 05:56:32;;;;;;;10.52;6.82;;;;;;;-145.23;100.00;58621.06;4998277;28;20233;-54
2022/09/13 05:58:59;;;;;;;7.90;7.10;;;;;;;-145.23;100.00;58621.06;4997949;28;20702;-54
2022/09/13 06:01:27;;;;;;;9.52;7.85;;;;;;;-145.23;100.00;58621.06;5000022;28;20252;-54
2022/09/13 06:03:55;;;;;;;10.07;7.25;;;;;;;-145.23;100.00;58621.06;4996250;28;20228;-55
2022/09/13 06:06:33;;;;;;;7.85;7.10;;;;;;;-145.23;100.00;58621.06;4996783;28;20241;-55
2022/09/13 06:09:01;;;;;;;8.90;7.30;;;;;;;-145.23;100.00;58621.06;5003848;28;20279;-55
2022/09/13 06:11:28;;;;;;;8.57;7.88;;;;;;;-145.23;100.00;58621.06;4999417;28;20393;-56
2022/09/13 06:13:55;;;;;;;9.85;8.45;;;;;;;-145.23;100.00;58621.06;5000856;28;20248;-57
2022/09/13 06:16:21;;;;;;;10.80;9.80;;;;;;;-145.23;100.00;58621.06;4995665;28;20325;-57
2022/09/13 06:18:48;;;;;;;9.93;8.98;;;;;;;-145.23;100.00;58621.06;5006600;28;20240;-57
2022/09/13 06:21:17;;;;;;;12.20;8.80;;;;;;;-145.23;100.00;58621.06;4994145;28;20253;-57
2022/09/13 06:23:45;;;;;;;10.73;9.73;;;;;;;-145.23;100.00;58621.06;4990228;28;20225;-57
2022/09/13 06:26:13;;;;;;;12.65;10.32;;;;;;;-145.23;100.00;58621.06;5009150;28;20236;-57
2022/09/13 06:28:40;;;;;;;16.50;10.52;;;;;;;-145.23;100.00;58621.06;5003959;28;20240;-57
2022/09/13 06:31:09;;;;;;;11.35;10.15;;;;;;;-145.23;100.00;58621.06;4995628;28;20233;-60
2022/09/13 06:33:37;;;;;;;10.55;9.55;;;;;;;-145.23;100.00;58621.06;4993505;28;20229;-57
2022/09/13 06:36:06;;;;;;;11.30;10.20;;;;;;;-145.23;100.00;58621.06;4999474;28;20350;-56
2022/09/13 06:38:32;;;;;;;12.25;11.05;;;;;;;-145.23;100.00;58621.06;5003895;28;20731;-57
2022/09/13 06:41:01;;;;;;;13.93;9.93;;;;;;;-145.23;100.00;58621.06;4996549;28;20233;-57
2022/09/13 06:43:28;;;;;;;13.18;11.63;;;;;;;-145.23;100.00;58621.06;5000876;28;20631;-57
2022/09/13 06:45:59;;;;;;;12.18;11.05;;;;;;;-145.23;100.00;58621.06;4993930;28;20246;-57
2022/09/13 06:48:26;;;;;;;10.15;9.25;;;;;;;-145.23;100.00;58621.06;4990691;28;20241;-56
2022/09/13 06:50:52;;;;;;;12.52;11.32;;;;;;;-145.23;100.00;58621.06;4998539;28;20616;-56
2022/09/13 06:53:19;;;;;;;11.68;10.55;;;;;;;-145.23;100.00;58621.06;4992658;28;20233;-56
2022/09/13 06:55:45;;;;;;;12.82;11.63;;;;;;;-145.23;100.00;58621.06;4996269;28;20233;-55
2022/09/13 06:58:13;;;;;;;11.68;10.57;;;;;;;-145.23;100.00;58621.06;4998504;28;20242;-55
2022/09/13 07:00:40;;;;;;;11.63;10.18;;;;;;;-145.23;100.00;58621.06;4993795;28;20775;-55
2022/09/13 07:03:06;;;;;;;13.93;11.25;;;;;;;-145.23;100.00;58621.06;4995207;28;20242;-54
2022/09/13 07:05:33;;;;;;;12.90;11.60;;;;;;;-145.23;100.00;58621.06;5008213;28;20702;-55
2022/09/13 07:08:00;;;;;;;12.10;11.00;;;;;;;-145.23;100.00;58621.06;4996968;28;20233;-54
2022/09/13 07:10:26;;;;;;;13.05;11.55;;;;;;;-145.23;100.00;58621.06;4995815;28;20245;-54
2022/09/13 07:12:53;;;;;;;16.38;12.90;;;;;;;-145.23;100.00;58621.06;4989737;28;20243;-55
2022/09/13 07:15:20;;;;;;;13.48;12.18;;;;;;;-145.23;100.00;58621.06;4995864;28;20312;-54
2022/09/13 07:17:47;;;;;;;13.80;12.18;;;;;;;-145.23;100.00;58621.06;5008045;28;20230;-54
2022/09/13 07:20:14;;;;;;;12.18;11.18;;;;;;;-145.23;100.00;58621.06;4990455;28;20245;-54
2022/09/13 07:22:41;;;;;;;11.45;10.43;;;;;;;-145.23;100.00;58621.06;4997788;28;20662;-54
2022/09/13 07:25:08;;;;;;;12.60;11.30;;;;;;;-145.23;100.00;58621.06;4991154;28;20659;-54
2022/09/13 07:27:35;;;;;;;12.63;11.35;;;;;;;-145.23;100.00;58621.06;4991048;28;20380;-54
2022/09/13 07:30:01;;;;;;;13.07;11.23;;;;;;;-145.23;100.00;58621.06;4990842;28;20241;-54
2022/09/13 07:32:32;;;;;;;11.90;10.55;;;;;;;-145.23;100.00;58621.06;4989446;28;20241;-55
2022/09/13 07:34:58;;;;;;;13.48;12.18;;;;;;;-145.23;100.00;58621.06;4992424;28;20325;-54
2022/09/13 07:37:25;;;;;;;13.35;12.05;;;;;;;-145.23;100.00;58621.06;4989733;28;20226;-55
2022/09/13 07:39:51;;;;;;;13.07;11.77;;;;;;;-145.23;100.00;58621.06;4993690;28;20716;-54
2022/09/13 07:42:18;;;;;;;12.45;11.35;;;;;;;-145.23;100.00;58621.06;4999024;28;20702;-54
2022/09/13 07:44:44;;;;;;;13.93;12.63;;;;;;;-145.23;100.00;58621.06;4991835;28;20232;-54
2022/09/13 07:47:11;;;;;;;14.15;12.32;;;;;;;-145.23;100.00;58621.06;4984941;28;20256;-56
2022/09/13 07:49:39;;;;;;;15.80;12.10;;;;;;;-145.23;100.00;58621.06;4986271;28;20241;-54
2022/09/13 07:52:05;;;;;;;11.77;10.57;;;;;;;-145.23;100.00;58621.06;4998379;28;20232;-54
2022/09/13 07:54:33;;;;;;;11.93;10.73;;;;;;;-145.23;100.00;58621.06;4991719;28;20437;-54
2022/09/13 07:57:00;;;;;;;12.95;11.73;;;;;;;-145.23;100.00;58621.06;4993505;28;20864;-55
2022/09/13 07:59:26;;;;;;;11.15;10.15;;;;;;;-145.23;100.00;58621.06;4989042;28;20238;-54
2022/09/13 08:01:53;;;;;;;12.63;11.38;;;;;;;-145.23;100.00;58621.06;4993002;28;20241;-55
2022/09/13 08:04:21;;;;;;;15.23;11.48;;;;;;;-145.23;100.00;58621.06;4989739;28;20246;-53
2022/09/13 08:06:48;;;;;;;12.48;10.85;;;;;;;-145.23;100.00;58621.06;4990785;28;20254;-54
2022/09/13 08:09:16;;;;;;;10.90;9.90;;;;;;;-145.23;100.00;58621.06;4992665;28;20241;-55
2022/09/13 08:11:44;;;;;;;14.30;11.75;;;;;;;-145.23;100.00;58621.06;5000127;28;20226;-55
2022/09/13 08:14:14;;;;;;;12.65;11.38;;;;;;;-145.23;100.00;58621.06;4996758;28;20237;-55
2022/09/13 08:16:40;;;;;;;11.70;10.63;;;;;;;-145.23;100.00;58621.06;4995511;28;20601;-55
2022/09/13 08:19:08;;;;;;;11.88;10.80;;;;;;;-145.23;100.00;58621.06;5005166;28;20264;-55
2022/09/13 08:21:36;;;;;;;14.18;11.63;;;;;;;-145.23;100.00;58621.06;5006569;28;20232;-55
2022/09/13 08:24:05;;;;;;;12.18;10.98;;;;;;;-145.23;100.00;58621.06;4990763;28;20238;-55
2022/09/13 08:26:34;;;;;;;12.75;10.65;;;;;;;-145.23;100.00;58621.06;4994782;28;20241;-54
2022/09/13 08:29:02;;;;;;;11.82;10.73;;;;;;;-145.23;100.00;58621.06;4991783;28;20237;-54
2022/09/13 08:31:29;;;;;;;11.93;10.77;;;;;;;-145.23;100.00;58621.06;5001924;28;20244;-55
2022/09/13 08:33:56;;;;;;;11.07;9.50;;;;;;;-145.23;100.00;58621.06;5004708;28;20612;-54
2022/09/13 08:36:23;;;;;;;12.88;10.70;;;;;;;-145.23;100.00;58621.06;5003901;28;20256;-55
2022/09/13 08:38:51;;;;;;;12.57;10.93;;;;;;;-145.23;100.00;58621.06;4994018;28;20712;-54
2022/09/13 08:41:46;;;;;;;11.70;10.27;;;;;;;-145.23;100.00;58621.06;4998026;28;20238;-54
2022/09/13 08:44:17;;;;;;;12.73;11.07;;;;;;;-145.23;100.00;58621.06;4993055;28;20714;-54
2022/09/13 08:46:45;;;;;;;11.98;10.52;;;;;;;-145.23;100.00;58621.06;4988035;28;20727;-54
2022/09/13 08:49:17;;;;;;;12.80;9.85;;;;;;;-145.23;100.00;58621.06;4992776;28;20900;-54
2022/09/13 08:51:47;;;;;;;11.43;10.23;;;;;;;-145.23;100.00;58621.06;5006448;28;20232;-54
2022/09/13 08:54:15;;;;;;;10.82;8.93;;;;;;;-145.23;100.00;58621.06;4988292;28;20639;-55
2022/09/13 08:56:52;;;;;;;11.68;10.45;;;;;;;-145.23;100.00;58621.06;4991549;28;20313;-54
2022/09/13 08:59:30;;;;;;;10.68;9.18;;;;;;;-145.23;100.00;58621.06;4985564;28;20241;-55
2022/09/13 09:02:19;;;;;;;10.77;8.85;;;;;;;-145.23;100.00;58621.06;4999659;28;20224;-54
2022/09/13 09:04:47;;;;;;;9.48;8.68;;;;;;;-145.23;100.00;58621.06;4993456;28;20244;-54
2022/09/13 09:07:17;;;;;;;11.10;9.13;;;;;;;-145.23;100.00;58621.06;4992328;28;20736;-54
2022/09/13 09:09:46;;;;;;;9.63;8.63;;;;;;;-145.23;100.00;58621.06;4996867;28;20256;-54
2022/09/13 09:12:24;;;;;;;9.50;7.97;;;;;;;-145.23;100.00;58621.06;4997891;28;20238;-54
2022/09/13 09:14:58;;;;;;;8.77;7.88;;;;;;;-145.23;100.00;58621.06;4998008;28;20242;-55
2022/09/13 09:17:27;;;;;;;8.32;7.45;;;;;;;-145.23;100.00;58621.06;4989386;28;20248;-55
2022/09/13 09:19:57;;;;;;;8.88;7.93;;;;;;;-145.23;100.00;58621.06;4999301;28;20289;-54
2022/09/13 09:22:28;;;;;;;9.18;8.00;;;;;;;-145.23;100.00;58621.06;5001037;28;21297;-55
2022/09/13 09:24:55;;;;;;;8.75;7.32;;;;;;;-145.23;100.00;58621.06;4993023;28;20241;-55
2022/09/13 09:27:24;;;;;;;11.20;8.10;;;;;;;-145.23;100.00;58621.06;4988113;28;20229;-55
2022/09/13 09:29:53;;;;;;;8.20;7.40;;;;;;;-145.23;100.00;58621.06;5002957;28;20600;-55
2022/09/13 09:32:35;;;;;;;7.75;7.05;;;;;;;-145.23;100.00;58621.06;4991110;28;20260;-55
2022/09/13 09:35:12;;;;;;;9.23;8.25;;;;;;;-145.23;100.00;58621.06;4994161;28;20261;-55
2022/09/13 09:37:40;;;;;;;10.27;7.15;;;;;;;-145.23;100.00;58621.06;4996005;28;20865;-55
2022/09/13 09:40:10;;;;;;;11.57;7.18;;;;;;;-145.23;100.00;58621.06;5012675;28;20233;-55
2022/09/13 09:42:41;;;;;;;11.52;6.65;;;;;;;-145.23;100.00;58621.06;5007388;28;20238;-55
2022/09/13 09:45:22;;;;;;;7.47;6.63;;;;;;;-145.23;100.00;58621.06;4994308;28;20237;-55
2022/09/13 09:47:50;;;;;;;7.05;6.30;;;;;;;-145.23;100.00;58621.06;4999180;28;20719;-55
2022/09/13 09:50:19;;;;;;;6.93;6.28;;;;;;;-145.23;100.00;58621.06;5013447;28;20224;-55
2022/09/13 09:52:49;;;;;;;6.43;5.82;;;;;;;-145.23;100.00;58621.06;4996770;28;20267;-53
2022/09/13 09:55:25;;;;;;;7.32;6.63;;;;;;;-145.23;100.00;58621.06;4991309;28;20249;-53
2022/09/13 09:57:59;;;;;;;6.65;5.97;;;;;;;-145.23;100.00;58621.06;5001952;28;20225;-53
2022/09/13 10:00:27;;;;;;;5.50;5.00;;;;;;;-145.23;100.00;58621.06;5001499;28;20615;-55
2022/09/13 10:02:57;;;;;;;9.85;5.20;;;;;;;-145.23;100.00;58621.06;4996752;28;20313;-53
2022/09/13 10:05:25;;;;;;;7.22;6.53;;;;;;;-145.23;100.00;58621.06;4997076;28;20324;-53
2022/09/13 10:07:57;;;;;;;7.82;5.90;;;;;;;-145.23;100.00;58621.06;5008813;28;20609;-53
2022/09/13 10:10:26;;;;;;;8.07;5.88;;;;;;;-145.23;100.00;58621.06;5004762;28;20455;-53
2022/09/13 10:12:55;;;;;;;7.32;5.72;;;;;;;-145.23;100.00;58621.06;4994338;28;20259;-53
2022/09/13 10:15:26;;;;;;;8.13;5.80;;;;;;;-145.23;100.00;58621.06;4992121;28;20238;-54
2022/09/13 10:18:04;;;;;;;6.43;5.85;;;;;;;-145.23;100.00;58621.06;4996109;28;20241;-54
2022/09/13 10:20:31;;;;;;;6.50;5.90;;;;;;;-145.23;100.00;58621.06;4993297;28;20233;-53
2022/09/13 10:23:19;;;;;;;7.55;6.82;;;;;;;-145.23;100.00;58621.06;4991172;28;20241;-53
2022/09/13 10:25:57;;;;;;;7.82;7.15;;;;;;;-145.23;100.00;58621.06;4994749;28;20319;-54
2022/09/13 10:28:24;;;;;;;6.47;5.88;;;;;;;-145.23;100.00;58621.06;4998607;28;20240;-54
2022/09/13 10:30:56;;;;;;;7.78;7.05;;;;;;;-145.23;100.00;58621.06;4991587;28;20229;-54
2022/09/13 10:33:27;;;;;;;8.90;7.90;;;;;;;-145.23;100.00;58621.06;4986850;28;20763;-54
2022/09/13 10:35:56;;;;;;;6.82;6.13;;;;;;;-145.23;100.00;58621.06;4996203;28;20273;-53
2022/09/13 10:38:26;;;;;;;9.40;7.18;;;;;;;-145.23;100.00;58621.06;4989090;28;20248;-53
2022/09/13 10:40:54;;;;;;;7.03;6.32;;;;;;;-145.23;100.00;58621.06;4991139;28;20264;-53
2022/09/13 10:43:21;;;;;;;8.77;7.88;;;;;;;-145.23;100.00;58621.06;4994727;28;20237;-53
2022/09/13 10:45:49;;;;;;;7.78;7.07;;;;;;;-145.23;100.00;58621.06;4993230;28;20253;-54
2022/09/13 10:48:18;;;;;;;7.68;6.72;;;;;;;-145.23;100.00;58621.06;4994208;28;20707;-54
2022/09/13 10:51:01;;;;;;;9.40;8.40;;;;;;;-145.23;100.00;58621.06;4987103;28;21150;-54
2022/09/13 10:53:35;;;;;;;8.93;8.05;;;;;;;-145.23;100.00;58621.06;4993921;28;20257;-53
2022/09/13 10:56:02;;;;;;;9.60;7.07;;;;;;;-145.23;100.00;58621.06;4993565;28;20233;-53
2022/09/13 10:58:29;;;;;;;8.15;7.45;;;;;;;-145.23;100.00;58621.06;4999178;28;20235;-53
2022/09/13 11:01:39;;;;;;;8.95;7.70;;;;;;;-145.23;100.00;58621.06;4996494;28;20904;-53
2022/09/13 11:04:44;;;;;;;7.20;6.47;;;;;;;-145.23;100.00;58621.06;4988656;28;20228;-53
2022/09/13 11:07:37;;;;;;;8.20;7.13;;;;;;;-145.23;100.00;58621.06;5004406;28;20237;-53
2022/09/13 11:10:08;;;;;;;8.13;6.53;;;;;;;-145.23;100.00;58621.06;4986219;28;20325;-53
2022/09/13 11:12:41;;;;;;;8.93;6.63;;;;;;;-145.23;100.00;58621.06;4990755;28;20229;-53
2022/09/13 11:15:17;;;;;;;8.95;6.90;;;;;;;-145.23;100.00;58621.06;4998049;28;20792;-53
2022/09/13 11:18:37;;;;;;;8.95;7.78;;;;;;;-145.23;100.00;58621.06;4990549;28;20284;-53
2022/09/13 11:21:13;;;;;;;7.30;6.70;;;;;;;-145.23;100.00;58621.06;4927499;28;20250;-53
2022/09/13 11:23:58;;;;;;;6.90;6.30;;;;;;;-145.23;100.00;58621.06;4928586;28;20269;-53
2022/09/13 11:26:35;;;;;;;7.65;6.82;;;;;;;-145.23;100.00;58621.06;4979853;28;20224;-53
2022/09/13 11:29:08;;;;;;;8.27;6.57;;;;;;;-145.23;100.00;58621.06;4992364;28;20719;-53